Startpagina
METAR-TAF:

METAR-TAF

Vliegvelden :

Schaffen

Diest, België

breedte: 51-00N, lengte: 005-04E, hoogte: 30 m

Actueel weer

Dit bericht is 1 uur en het 6 minuten geleden gemaakt, om 07:55 UTC
Wind 3 kt uit het westzuidwesten
Temperatuur 9°C
Vochtigheid 81%
Druk 1030 hPa
Zicht: 4400 m
nevel

METAR: EBDT 230755Z AUTO 24003KT 4400 BR FEW022/// OVC027/// 09/06 Q1030 GRN

Tijdstip: 10:01 (09:01 UTC)

Verwachting

Dit bericht is 21 uur en het 20 minuten geleden gemaakt, om 11:41 UTC
Verwachting geldig van 22 om 13 UTC tot 22 om 22 UTC
Wind 4 kt uit het zuidzuidoosten
Zicht 10 km of meer
Weinig wolken op 25000 ft
Wijzigt naar
van 22 om 14 UTC tot 22 om UTC
Wind 5 kt uit het zuiden
Kans 30% :
Tijdelijke
van 22 om 18 UTC tot 22 om 19 UTC
Zicht: 6000 m

TAF: EBDT 221141Z 2213/2222 15004KT 9999 FEW250 BECMG 2214/22 19005KT PROB30 TEMPO 2218/2219 6000

Waarnemingen en weersverwachtingen van meer dan 4000 vliegvelden (METAR en TAF).

De beschikbare stations zijn de gele en rode punten op de kaart.

Ga met uw muis naar het station om de naam te zien.

Klik dan om waarnemingen en weersverwachtingen te zien.

kaart wijzigen: klik op de groene knoppen met een zwart kruis om in te zoomen, op de groene knop met een streepje om uit te zoomen of op de groene pijlen voor aangrenzende kaarten.


METAR-TAF: